Time;durP1;ratioP1;P1;durP2;ratioP2;P2;SDS_P1;SDS_P2;PMS_P1;PMS_P2;Temp;Humidity;BMP_temperature;BMP_pressure;BME280_temperature;BME280_humidity;BME280_pressure;Samples;Min_cycle;Max_cycle;Signal;HPM_P1;HPM_P2
2024/03/21 00:05:22;;;;;;;28.55;21.23;;;11.80;99.90;;;;;;12522457;28;20057;-82
2024/03/21 00:11:23;;;;;;;37.03;24.45;;;11.70;99.90;;;;;;12506578;28;20057;-81
2024/03/21 00:17:24;;;;;;;34.42;23.33;;;11.60;99.90;;;;;;12507693;28;20128;-80
2024/03/21 00:23:26;;;;;;;34.40;24.10;;;11.50;99.90;;;;;;12480398;28;20137;-81
2024/03/21 00:29:26;;;;;;;30.17;22.67;;;11.60;99.90;;;;;;12517602;28;20053;-82
2024/03/21 00:35:27;;;;;;;34.63;24.50;;;11.60;99.90;;;;;;12511084;28;20057;-82
2024/03/21 00:41:29;;;;;;;34.22;23.75;;;11.60;99.90;;;;;;12514645;28;20049;-82
2024/03/21 00:47:29;;;;;;;33.17;23.73;;;11.50;99.90;;;;;;12526012;28;20049;-81
2024/03/21 00:53:31;;;;;;;32.58;22.63;;;11.50;99.90;;;;;;12523612;28;20433;-82
2024/03/21 00:59:32;;;;;;;30.10;22.50;;;11.50;99.90;;;;;;12515871;28;20064;-81
2024/03/21 01:05:34;;;;;;;32.30;22.92;;;11.40;99.90;;;;;;12505119;28;20083;-81
2024/03/21 01:11:35;;;;;;;34.67;24.08;;;11.30;99.90;;;;;;12538081;28;20037;-84
2024/03/21 01:17:36;;;;;;;32.92;23.05;;;11.20;99.90;;;;;;12556445;28;20423;-83
2024/03/21 01:23:37;;;;;;;30.25;22.65;;;11.10;99.90;;;;;;12522485;28;20465;-82
2024/03/21 01:29:38;;;;;;;31.35;23.00;;;11.20;99.90;;;;;;12507838;28;20049;-83
2024/03/21 01:35:39;;;;;;;35.25;22.83;;;11.30;99.90;;;;;;12515284;28;20132;-83
2024/03/21 01:41:43;;;;;;;33.05;22.90;;;11.20;99.90;;;;;;12517977;28;20128;-82
2024/03/21 01:47:44;;;;;;;33.42;23.13;;;11.20;99.90;;;;;;12530118;28;20064;-82
2024/03/21 01:53:47;;;;;;;30.10;22.27;;;11.20;99.90;;;;;;12511115;28;20075;-82
2024/03/21 01:59:48;;;;;;;34.20;22.00;;;11.30;99.90;;;;;;12536531;28;20562;-82
2024/03/21 02:05:49;;;;;;;34.97;23.60;;;11.30;99.90;;;;;;12512682;28;20103;-82
2024/03/21 02:11:50;;;;;;;32.58;23.20;;;11.30;99.90;;;;;;12518176;28;20061;-82
2024/03/21 02:17:51;;;;;;;33.60;22.58;;;11.30;99.90;;;;;;12518955;28;20243;-85
2024/03/21 02:23:52;;;;;;;32.05;23.05;;;11.20;99.90;;;;;;12508699;28;20056;-84
2024/03/21 02:29:53;;;;;;;31.25;22.13;;;11.20;99.90;;;;;;12502261;28;20110;-81
2024/03/21 02:35:54;;;;;;;31.83;21.35;;;11.10;99.90;;;;;;12514979;28;20118;-81
2024/03/21 02:41:55;;;;;;;33.88;21.35;;;11.10;99.90;;;;;;12501698;28;20556;-81
2024/03/21 02:47:55;;;;;;;30.80;22.05;;;11.10;99.90;;;;;;12521222;28;20502;-81
2024/03/21 02:53:56;;;;;;;34.13;22.33;;;11.10;99.90;;;;;;12514541;28;20055;-81
2024/03/21 02:59:57;;;;;;;29.63;21.08;;;11.10;99.90;;;;;;12517691;28;20076;-81
2024/03/21 03:05:58;;;;;;;27.40;19.33;;;11.10;99.90;;;;;;12500951;28;20053;-80
2024/03/21 03:11:59;;;;;;;30.33;20.63;;;11.00;99.90;;;;;;12502892;28;20512;-81
2024/03/21 03:18:00;;;;;;;31.08;20.65;;;10.80;99.90;;;;;;12526879;28;20053;-82
2024/03/21 03:24:01;;;;;;;29.80;20.05;;;10.90;99.90;;;;;;12537539;28;20049;-82
2024/03/21 03:30:03;;;;;;;27.98;19.38;;;10.90;99.90;;;;;;12509420;28;20532;-85
2024/03/21 03:36:05;;;;;;;32.30;20.25;;;11.00;99.90;;;;;;12497865;28;20114;-85
2024/03/21 03:42:06;;;;;;;25.77;19.58;;;10.90;99.90;;;;;;12517629;28;20048;-85
2024/03/21 03:48:06;;;;;;;28.38;20.90;;;10.90;99.90;;;;;;12500379;28;20417;-86
2024/03/21 03:54:07;;;;;;;37.67;25.40;;;11.00;99.90;;;;;;12494454;28;20061;-85
2024/03/21 04:00:10;;;;;;;39.53;24.90;;;11.00;99.90;;;;;;12496788;28;20054;-85
2024/03/21 04:06:12;;;;;;;36.20;22.95;;;11.10;99.90;;;;;;12504994;28;20050;-85
2024/03/21 04:12:13;;;;;;;35.13;23.45;;;11.20;99.90;;;;;;12533976;28;20416;-85
2024/03/21 04:18:14;;;;;;;40.50;23.98;;;11.20;99.90;;;;;;12505038;28;20044;-85
2024/03/21 04:24:16;;;;;;;33.83;22.15;;;11.30;99.90;;;;;;12500575;28;20044;-85
2024/03/21 04:30:17;;;;;;;34.88;21.25;;;11.30;99.90;;;;;;12495298;28;20106;-85
2024/03/21 04:36:18;;;;;;;29.45;20.88;;;11.30;99.90;;;;;;12499048;28;20130;-86
2024/03/21 04:42:19;;;;;;;34.40;21.25;;;11.40;99.90;;;;;;12521378;28;20041;-81
2024/03/21 04:48:20;;;;;;;32.97;20.60;;;11.50;99.90;;;;;;12518008;28;20132;-81
2024/03/21 04:54:21;;;;;;;33.80;22.27;;;11.50;99.90;;;;;;12508371;28;20100;-81
2024/03/21 05:00:22;;;;;;;29.00;20.35;;;11.50;99.90;;;;;;12522738;28;20057;-81
2024/03/21 05:06:23;;;;;;;33.70;21.70;;;11.40;99.90;;;;;;12502594;28;20053;-81
2024/03/21 05:12:24;;;;;;;31.25;20.85;;;11.40;99.90;;;;;;12504382;28;20053;-81
2024/03/21 05:18:25;;;;;;;30.88;19.65;;;11.30;99.90;;;;;;12524884;28;20118;-80
2024/03/21 05:24:26;;;;;;;31.65;20.48;;;11.40;99.90;;;;;;12520237;28;20049;-81
2024/03/21 05:30:27;;;;;;;31.85;19.42;;;11.30;99.90;;;;;;12498124;28;20386;-81
2024/03/21 05:36:29;;;;;;;29.50;18.48;;;11.30;99.90;;;;;;12517005;28;20048;-82
2024/03/21 05:42:30;;;;;;;26.45;17.08;;;11.40;99.90;;;;;;12525299;28;20045;-82
2024/03/21 05:48:32;;;;;;;28.73;17.58;;;11.40;99.90;;;;;;12511587;28;20053;-82
2024/03/21 05:54:33;;;;;;;27.80;16.38;;;11.40;99.90;;;;;;12502789;28;20060;-85
2024/03/21 06:00:34;;;;;;;25.38;15.55;;;11.40;99.90;;;;;;12504738;28;20079;-83
2024/03/21 06:06:35;;;;;;;26.05;14.80;;;11.30;99.90;;;;;;12529356;28;20102;-83
2024/03/21 06:12:36;;;;;;;22.92;13.32;;;11.30;99.90;;;;;;12511901;28;20546;-83
2024/03/21 06:18:37;;;;;;;18.55;11.57;;;11.30;99.90;;;;;;12517829;28;20055;-82
2024/03/21 06:24:38;;;;;;;17.63;10.73;;;11.30;99.90;;;;;;12520198;28;20076;-83
2024/03/21 06:30:39;;;;;;;20.13;12.30;;;11.40;99.90;;;;;;12520900;28;20057;-84
2024/03/21 06:36:40;;;;;;;17.80;11.15;;;11.40;99.90;;;;;;12517092;28;20053;-83
2024/03/21 06:42:41;;;;;;;14.93;10.15;;;11.30;99.90;;;;;;12528613;28;20459;-83
2024/03/21 06:48:42;;;;;;;14.52;10.10;;;11.30;99.90;;;;;;12524783;28;20056;-83
2024/03/21 06:54:44;;;;;;;14.10;9.45;;;11.20;99.90;;;;;;12504188;28;20061;-83
2024/03/21 07:00:46;;;;;;;18.77;11.20;;;11.20;99.90;;;;;;12522802;28;20057;-87
2024/03/21 07:06:47;;;;;;;9.60;6.43;;;11.20;99.90;;;;;;12520375;28;20041;-88
2024/03/21 07:12:48;;;;;;;9.65;5.68;;;11.00;99.90;;;;;;12506753;28;20045;-85
2024/03/21 07:18:49;;;;;;;7.18;4.60;;;10.80;99.90;;;;;;12533946;28;20505;-87
2024/03/21 07:24:50;;;;;;;7.57;4.88;;;10.70;99.90;;;;;;12506081;28;20053;-86
2024/03/21 07:30:55;;;;;;;5.53;3.70;;;10.70;99.90;;;;;;12503709;28;20053;-88
2024/03/21 07:36:56;;;;;;;7.20;3.83;;;10.60;99.90;;;;;;12512264;28;20086;-87
2024/03/21 07:42:57;;;;;;;5.68;3.65;;;10.40;99.90;;;;;;12515712;28;20060;-89
2024/03/21 07:48:59;;;;;;;5.00;3.70;;;10.20;99.90;;;;;;12526190;28;20056;-89
2024/03/21 07:55:00;;;;;;;9.48;4.15;;;10.00;99.90;;;;;;12510964;28;20098;-86
2024/03/21 08:01:01;;;;;;;8.70;4.60;;;9.80;99.90;;;;;;12507418;28;20118;-89
2024/03/21 08:07:02;;;;;;;11.45;6.32;;;9.70;99.90;;;;;;12532614;28;20045;-89
2024/03/21 08:13:03;;;;;;;13.15;6.55;;;9.40;99.90;;;;;;12525011;28;20554;-85
2024/03/21 08:19:04;;;;;;;9.95;5.82;;;9.20;99.90;;;;;;12548410;28;20141;-85
2024/03/21 08:25:06;;;;;;;10.50;5.68;;;9.20;99.90;;;;;;12527287;28;20056;-88
2024/03/21 08:31:06;;;;;;;7.85;4.93;;;9.30;99.90;;;;;;12534436;28;20064;-85
2024/03/21 08:37:07;;;;;;;8.57;4.82;;;9.20;99.90;;;;;;12536201;28;20056;-87
2024/03/21 08:43:08;;;;;;;7.10;4.00;;;9.10;99.90;;;;;;12556268;28;20033;-86
2024/03/21 08:49:09;;;;;;;8.95;4.25;;;8.90;99.90;;;;;;12531238;28;20064;-87
2024/03/21 08:55:10;;;;;;;6.47;3.22;;;8.80;99.90;;;;;;12531539;28;20060;-85
2024/03/21 09:01:11;;;;;;;5.22;2.60;;;8.70;99.90;;;;;;12533515;28;20084;-85
2024/03/21 09:07:12;;;;;;;9.27;2.88;;;8.70;99.90;;;;;;12555005;28;20041;-84
2024/03/21 09:13:13;;;;;;;4.03;1.70;;;8.50;99.90;;;;;;12556405;28;20049;-89
2024/03/21 09:19:14;;;;;;;3.50;1.92;;;8.60;99.90;;;;;;12534924;28;20053;-86
2024/03/21 09:25:15;;;;;;;4.35;1.70;;;8.60;99.90;;;;;;12532786;28;20413;-83
2024/03/21 09:31:16;;;;;;;5.22;1.90;;;8.70;99.90;;;;;;12543300;28;20053;-84
2024/03/21 09:37:23;;;;;;;4.38;2.13;;;8.90;99.90;;;;;;12513820;28;20135;-84
2024/03/21 09:43:24;;;;;;;4.40;2.45;;;8.70;99.90;;;;;;12517754;28;20107;-84
2024/03/21 09:49:25;;;;;;;5.47;2.65;;;8.80;99.90;;;;;;12504387;28;20114;-84
2024/03/21 09:55:27;;;;;;;5.68;2.30;;;8.90;99.90;;;;;;12519402;28;20053;-87
2024/03/21 10:01:28;;;;;;;7.97;2.70;;;8.80;99.90;;;;;;12538561;28;20053;-82
2024/03/21 10:07:29;;;;;;;6.18;2.17;;;9.00;99.90;;;;;;12518001;28;20420;-83
2024/03/21 10:13:30;;;;;;;4.65;2.30;;;9.10;99.90;;;;;;12531719;28;20060;-82
2024/03/21 10:19:31;;;;;;;4.22;2.13;;;9.50;99.90;;;;;;12521612;28;20062;-83
2024/03/21 10:25:35;;;;;;;3.33;1.98;;;9.70;99.90;;;;;;12504019;28;20052;-82
2024/03/21 10:31:36;;;;;;;;;;;9.70;99.90;;;;;;12505913;28;20053;-84
2024/03/21 10:37:38;;;;;;;3.88;2.38;;;9.80;99.90;;;;;;12500513;28;20361;-85
2024/03/21 10:43:42;;;;;;;6.93;2.33;;;10.10;99.90;;;;;;12505031;28;20052;-84
2024/03/21 10:49:44;;;;;;;5.35;2.40;;;10.00;99.90;;;;;;12534885;28;20049;-84
2024/03/21 10:55:45;;;;;;;7.25;2.58;;;10.10;99.90;;;;;;12499789;28;20103;-84
2024/03/21 11:01:47;;;;;;;4.28;2.33;;;10.00;99.90;;;;;;12463937;28;20054;-86
2024/03/21 11:07:48;;;;;;;4.15;2.35;;;10.20;99.90;;;;;;12462982;28;20054;-86
2024/03/21 11:13:50;;;;;;;4.93;2.78;;;10.60;99.90;;;;;;12497445;28;20505;-85
2024/03/21 11:19:51;;;;;;;4.40;2.50;;;10.60;99.90;;;;;;12495703;28;20049;-86
2024/03/21 11:25:52;;;;;;;3.50;2.45;;;10.80;99.90;;;;;;12480952;28;20058;-85
2024/03/21 11:31:53;;;;;;;6.43;2.53;;;10.80;99.90;;;;;;12459312;28;20049;-85
2024/03/21 11:37:55;;;;;;;4.97;2.72;;;10.80;99.90;;;;;;12475716;28;20563;-85
2024/03/21 11:43:57;;;;;;;5.13;2.70;;;10.80;99.90;;;;;;12496479;28;20041;-85
2024/03/21 11:49:58;;;;;;;6.18;2.55;;;10.70;99.90;;;;;;12469680;28;20461;-85
2024/03/21 11:55:59;;;;;;;5.72;3.20;;;10.80;99.90;;;;;;12476192;28;21380;-83
2024/03/21 12:02:00;;;;;;;7.55;2.80;;;10.60;99.90;;;;;;12486940;28;20068;-82
2024/03/21 12:08:02;;;;;;;4.50;2.75;;;10.70;99.90;;;;;;12459255;28;20594;-82
2024/03/21 12:14:03;;;;;;;5.80;2.47;;;10.60;99.90;;;;;;12458272;28;20058;-83
2024/03/21 12:20:05;;;;;;;4.45;2.63;;;10.50;99.90;;;;;;12503291;28;20493;-84
2024/03/21 12:26:07;;;;;;;5.38;2.05;;;10.50;99.90;;;;;;12483449;28;20088;-84
2024/03/21 12:32:08;;;;;;;6.05;2.08;;;10.90;99.90;;;;;;12504222;28;20088;-83
2024/03/21 12:38:09;;;;;;;4.00;1.88;;;11.00;99.90;;;;;;12472872;28;20049;-82
2024/03/21 12:44:10;;;;;;;9.68;3.03;;;11.00;99.90;;;;;;12489517;28;20045;-85
2024/03/21 12:50:11;;;;;;;4.38;2.55;;;10.80;99.90;;;;;;12481886;28;20414;-87
2024/03/21 12:56:12;;;;;;;4.65;2.28;;;11.00;99.90;;;;;;12468348;28;20053;-82
2024/03/21 13:02:14;;;;;;;6.22;2.30;;;11.00;99.90;;;;;;12453000;28;20056;-87
2024/03/21 13:08:15;;;;;;;3.67;2.47;;;11.20;99.90;;;;;;12474584;28;20477;-84
2024/03/21 13:14:16;;;;;;;4.50;2.40;;;11.20;99.90;;;;;;12475658;28;20560;-84
2024/03/21 13:20:18;;;;;;;4.72;2.20;;;11.60;99.90;;;;;;12453735;28;20080;-85
2024/03/21 13:26:19;;;;;;;4.75;2.65;;;11.60;99.90;;;;;;12455864;28;20053;-84
2024/03/21 13:32:20;;;;;;;2.72;1.88;;;11.30;99.90;;;;;;12468803;28;20568;-83
2024/03/21 13:38:21;;;;;;;4.35;2.35;;;11.60;99.90;;;;;;12470157;28;20041;-80
2024/03/21 13:44:23;;;;;;;3.25;2.00;;;11.50;99.90;;;;;;12474430;28;20057;-80
2024/03/21 13:50:25;;;;;;;2.85;2.55;;;11.70;99.90;;;;;;12446288;28;20873;-81
2024/03/21 13:56:26;;;;;;;3.92;2.20;;;11.60;99.90;;;;;;12462621;28;20071;-81
2024/03/21 14:02:30;;;;;;;4.28;2.30;;;11.70;99.90;;;;;;12500657;28;20402;-80
2024/03/21 14:08:31;;;;;;;4.75;2.85;;;11.70;99.90;;;;;;12552399;28;20053;-83
2024/03/21 14:14:32;;;;;;;3.83;3.10;;;11.70;99.90;;;;;;12545295;28;20056;-86
2024/03/21 14:20:33;;;;;;;4.80;3.00;;;11.70;99.90;;;;;;12564018;28;20052;-81
2024/03/21 14:26:35;;;;;;;3.03;2.30;;;11.50;99.90;;;;;;12540151;28;20045;-81
2024/03/21 14:32:43;;;;;;;3.40;2.15;;;11.30;99.90;;;;;;12538787;28;20416;-85
2024/03/21 14:38:43;;;;;;;3.80;2.45;;;11.40;99.90;;;;;;12533151;28;20390;-81
2024/03/21 14:44:45;;;;;;;5.30;2.67;;;11.50;99.90;;;;;;12512076;28;20048;-85
2024/03/21 14:50:46;;;;;;;4.25;2.45;;;11.60;99.90;;;;;;12517085;28;20064;-82
2024/03/21 14:56:47;;;;;;;4.97;2.60;;;11.60;99.90;;;;;;12512575;28;20064;-81
2024/03/21 15:02:48;;;;;;;3.50;2.30;;;11.60;99.90;;;;;;12472901;28;20072;-81
2024/03/21 15:08:51;;;;;;;3.60;2.00;;;11.40;99.90;;;;;;12484176;28;20142;-81
2024/03/21 15:14:52;;;;;;;5.65;2.50;;;11.40;99.90;;;;;;12465820;28;20057;-80
2024/03/21 15:20:53;;;;;;;5.32;2.47;;;11.30;99.90;;;;;;12464902;28;20046;-81
2024/03/21 15:26:54;;;;;;;4.47;2.50;;;11.40;99.90;;;;;;12459904;28;20053;-80
2024/03/21 15:32:55;;;;;;;3.55;2.15;;;11.40;99.90;;;;;;12458035;28;20057;-82
2024/03/21 15:38:56;;;;;;;3.22;2.10;;;11.40;99.90;;;;;;12465520;28;20053;-82
2024/03/21 15:44:56;;;;;;;4.57;2.10;;;11.30;99.90;;;;;;12467789;28;20045;-81
2024/03/21 15:50:58;;;;;;;2.92;2.10;;;11.40;99.90;;;;;;12473524;28;20045;-80
2024/03/21 15:56:59;;;;;;;4.07;2.10;;;11.50;99.90;;;;;;12461455;28;20060;-81
2024/03/21 16:03:00;;;;;;;3.13;2.10;;;11.40;99.90;;;;;;12517750;28;20150;-81
2024/03/21 16:09:02;;;;;;;5.88;2.38;;;11.20;99.90;;;;;;12539161;28;20080;-81
2024/03/21 16:15:03;;;;;;;5.57;2.70;;;11.10;99.90;;;;;;12517563;28;20068;-81
2024/03/21 16:21:04;;;;;;;4.82;2.58;;;10.90;99.90;;;;;;12523256;28;20049;-81
2024/03/21 16:27:05;;;;;;;3.88;2.58;;;10.90;99.90;;;;;;12519432;28;20049;-82
2024/03/21 16:33:06;;;;;;;3.63;2.55;;;10.90;99.90;;;;;;12534968;28;20160;-83
2024/03/21 16:39:08;;;;;;;3.53;2.58;;;10.80;99.90;;;;;;12535461;28;20052;-82
2024/03/21 16:45:09;;;;;;;5.28;2.90;;;10.70;99.90;;;;;;12527324;28;20094;-82
2024/03/21 16:51:10;;;;;;;5.78;3.30;;;10.70;99.90;;;;;;12529925;28;20111;-84
2024/03/21 16:57:10;;;;;;;5.28;3.78;;;10.80;99.90;;;;;;12544000;28;20059;-82
2024/03/21 17:03:13;;;;;;;4.80;3.25;;;10.60;99.90;;;;;;12462197;28;20057;-82
2024/03/21 17:09:14;;;;;;;9.00;3.90;;;10.70;99.90;;;;;;12467284;28;20494;-81
2024/03/21 17:15:15;;;;;;;4.82;3.42;;;10.60;99.90;;;;;;12461530;28;20057;-82
2024/03/21 17:21:16;;;;;;;5.05;3.58;;;10.50;99.90;;;;;;12471911;28;20053;-82
2024/03/21 17:27:17;;;;;;;6.88;4.05;;;10.30;99.90;;;;;;12464505;28;20052;-82
2024/03/21 17:33:18;;;;;;;14.18;8.35;;;10.30;99.90;;;;;;12479887;28;20136;-82
2024/03/21 17:39:19;;;;;;;9.18;4.80;;;10.20;99.90;;;;;;12488602;28;20050;-81
2024/03/21 17:45:20;;;;;;;7.03;4.72;;;10.10;99.90;;;;;;12494904;28;20437;-80
2024/03/21 17:51:21;;;;;;;7.05;4.53;;;10.00;99.90;;;;;;12472765;28;20057;-85
2024/03/21 17:57:23;;;;;;;9.05;5.47;;;9.80;99.90;;;;;;12460811;28;20391;-85
2024/03/21 18:03:24;;;;;;;8.73;4.95;;;9.60;99.90;;;;;;12469475;28;20045;-84
2024/03/21 18:09:25;;;;;;;9.23;5.07;;;9.60;99.90;;;;;;12464245;28;20057;-83
2024/03/21 18:15:26;;;;;;;7.22;4.63;;;9.50;99.90;;;;;;12470806;28;20553;-83
2024/03/21 18:21:26;;;;;;;8.88;4.70;;;9.30;99.90;;;;;;12467333;28;20096;-83
2024/03/21 18:27:27;;;;;;;6.32;4.22;;;9.20;99.90;;;;;;12463259;28;20041;-84
2024/03/21 18:33:28;;;;;;;6.82;4.28;;;9.10;99.90;;;;;;12473298;28;20406;-82
2024/03/21 18:39:30;;;;;;;9.25;3.92;;;9.10;99.90;;;;;;12460987;28;20081;-84
2024/03/21 18:45:33;;;;;;;5.38;3.50;;;9.10;99.90;;;;;;12453116;28;20076;-84
2024/03/21 18:51:34;;;;;;;6.05;3.70;;;9.10;99.90;;;;;;12478491;28;20045;-84
2024/03/21 18:57:35;;;;;;;6.70;3.55;;;9.10;99.90;;;;;;12479014;28;20402;-84
2024/03/21 19:03:37;;;;;;;6.88;3.15;;;9.10;99.90;;;;;;12468999;28;20052;-83
2024/03/21 19:09:38;;;;;;;7.20;3.70;;;9.20;99.90;;;;;;12467510;28;20061;-84
2024/03/21 19:15:39;;;;;;;5.85;3.38;;;9.20;99.90;;;;;;12452092;28;20525;-84
2024/03/21 19:21:40;;;;;;;6.20;3.47;;;9.10;99.90;;;;;;12450652;28;20056;-84
2024/03/21 19:27:41;;;;;;;4.88;3.45;;;9.10;99.90;;;;;;12457187;28;20045;-83
2024/03/21 19:33:42;;;;;;;6.60;3.85;;;9.10;99.90;;;;;;12452083;28;20124;-84
2024/03/21 19:39:43;;;;;;;5.38;3.83;;;8.90;99.90;;;;;;12452160;28;20111;-83
2024/03/21 19:45:43;;;;;;;6.25;3.97;;;8.90;99.90;;;;;;12471900;28;20056;-83
2024/03/21 19:51:44;;;;;;;8.63;4.60;;;8.80;99.90;;;;;;12456199;28;20088;-82
2024/03/21 19:57:45;;;;;;;11.07;4.57;;;8.80;99.90;;;;;;12463856;28;20053;-82
2024/03/21 20:03:46;;;;;;;6.57;4.40;;;8.70;99.90;;;;;;12527024;28;20052;-82
2024/03/21 20:09:47;;;;;;;6.05;4.57;;;8.70;99.90;;;;;;12498830;28;20071;-80
2024/03/21 20:15:48;;;;;;;9.52;4.25;;;8.70;99.90;;;;;;12507231;28;20057;-81
2024/03/21 20:21:49;;;;;;;9.13;4.53;;;8.60;99.90;;;;;;12518226;28;20391;-82
2024/03/21 20:27:50;;;;;;;9.02;5.18;;;8.60;99.90;;;;;;12526228;28;20136;-80
2024/03/21 20:33:51;;;;;;;7.22;4.80;;;8.60;99.90;;;;;;12513904;28;20493;-80
2024/03/21 20:39:53;;;;;;;6.38;4.53;;;8.70;99.90;;;;;;12523523;28;20088;-83
2024/03/21 20:45:55;;;;;;;7.90;5.10;;;8.70;99.90;;;;;;12534786;28;20049;-80
2024/03/21 20:51:56;;;;;;;8.82;5.00;;;8.70;99.90;;;;;;12510774;28;20106;-79
2024/03/21 20:57:57;;;;;;;9.13;4.90;;;8.80;99.90;;;;;;12501070;28;20216;-79
2024/03/21 21:03:58;;;;;;;10.02;6.10;;;8.90;99.90;;;;;;12518260;28;20037;-80
2024/03/21 21:09:59;;;;;;;9.55;5.93;;;8.90;99.90;;;;;;12506447;28;20052;-82
2024/03/21 21:16:03;;;;;;;9.80;6.60;;;8.90;99.90;;;;;;12488317;28;20084;-83
2024/03/21 21:22:04;;;;;;;8.18;6.47;;;9.00;99.90;;;;;;12521043;28;20429;-79
2024/03/21 21:28:05;;;;;;;11.60;6.88;;;9.00;99.90;;;;;;12505395;28;20060;-79
2024/03/21 21:34:06;;;;;;;10.73;7.00;;;9.10;99.90;;;;;;12509495;28;20060;-78
2024/03/21 21:40:07;;;;;;;12.13;7.35;;;9.10;99.90;;;;;;12497502;28;20520;-78
2024/03/21 21:46:10;;;;;;;10.13;7.25;;;9.10;99.90;;;;;;12520920;28;20053;-77
2024/03/21 21:52:11;;;;;;;12.15;7.93;;;9.10;99.90;;;;;;12499217;28;20053;-80
2024/03/21 21:58:12;;;;;;;15.00;8.23;;;9.10;99.90;;;;;;12528232;28;20057;-77
2024/03/21 22:04:13;;;;;;;13.63;8.43;;;9.10;99.90;;;;;;12516364;28;20053;-79
2024/03/21 22:10:15;;;;;;;14.27;9.98;;;9.10;99.90;;;;;;12531241;28;20095;-78
2024/03/21 22:16:17;;;;;;;14.30;10.07;;;9.20;99.90;;;;;;12523026;28;20508;-79
2024/03/21 22:22:18;;;;;;;15.10;9.57;;;9.20;99.90;;;;;;12520350;28;20095;-81
2024/03/21 22:28:19;;;;;;;14.40;9.65;;;9.20;99.90;;;;;;12522885;28;20157;-79
2024/03/21 22:34:20;;;;;;;17.10;10.02;;;9.10;99.90;;;;;;12508394;28;20060;-81
2024/03/21 22:40:21;;;;;;;16.17;10.02;;;9.00;99.90;;;;;;12523988;28;20087;-80
2024/03/21 22:46:22;;;;;;;18.52;10.23;;;8.90;99.90;;;;;;12515663;28;20083;-79
2024/03/21 22:52:23;;;;;;;18.05;10.50;;;8.80;99.90;;;;;;12509866;28;20096;-79
2024/03/21 22:58:24;;;;;;;19.80;11.07;;;8.80;99.90;;;;;;12516197;28;20527;-79
2024/03/21 23:04:28;;;;;;;19.33;11.52;;;8.70;99.90;;;;;;12518433;28;20045;-80
2024/03/21 23:10:29;;;;;;;21.75;12.88;;;8.70;99.90;;;;;;12529914;28;20053;-78
2024/03/21 23:16:30;;;;;;;21.15;13.15;;;8.80;99.90;;;;;;12509857;28;20052;-78
2024/03/21 23:22:31;;;;;;;24.00;13.63;;;8.80;99.90;;;;;;12509891;28;20052;-79
2024/03/21 23:28:33;;;;;;;23.80;14.43;;;8.90;99.90;;;;;;12528600;28;20060;-78
2024/03/21 23:34:33;;;;;;;25.95;15.38;;;8.90;99.90;;;;;;12517350;28;20061;-79
2024/03/21 23:40:38;;;;;;;25.23;15.07;;;9.00;99.90;;;;;;12511041;28;20057;-84
2024/03/21 23:46:38;;;;;;;23.33;14.85;;;8.90;99.90;;;;;;12516773;28;20052;-83
2024/03/21 23:52:40;;;;;;;27.92;16.08;;;8.90;99.90;;;;;;12520220;28;20084;-85
2024/03/21 23:58:40;;;;;;;31.52;16.98;;;8.90;99.90;;;;;;12519735;28;20049;-83
